Time,TemperatureF,DewpointF,PressureIn,WindDirection,WindDirectionDegrees,WindSpeedMPH,WindSpeedGustMPH,Humidity,HourlyPrecipIn,Conditions,Clouds,dailyrainin,SolarRadiationWatts/m^2,SoftwareType,DateUTC
2013-02-25 00:11:00,11.0,6.0,-100.00,WNW,301,0.0,7.0,79,0.00,,,0.09,1.000000,,2013-02-25 07:11:00,
2013-02-25 00:21:00,11.0,6.0,-100.00,WNW,301,0.0,7.0,79,0.00,,,0.09,1.000000,,2013-02-25 07:21:00,
2013-02-25 01:21:00,10.0,5.0,-100.00,South,180,0.0,0.0,78,0.00,,,-99.99,1.000000,,2013-02-25 08:21:00,
2013-02-25 01:31:00,10.0,5.0,-100.00,South,180,0.0,0.0,78,0.00,,,-99.99,1.000000,,2013-02-25 08:31:00,
2013-02-25 01:41:00,10.0,5.0,-100.00,South,180,0.0,0.0,78,0.00,,,-99.99,1.000000,,2013-02-25 08:41:00,
2013-02-25 01:52:00,10.0,5.0,-100.00,South,180,0.0,0.0,78,0.00,,,-99.99,1.000000,,2013-02-25 08:52:00,
2013-02-25 02:21:00,7.0,1.0,-100.00,North,3,0.0,2.0,75,0.00,,,0.09,1.000000,,2013-02-25 09:21:00,
2013-02-25 03:21:00,10.0,4.0,-100.00,ENE,68,3.0,7.0,77,0.00,,,0.09,1.000000,,2013-02-25 10:21:00,
2013-02-25 03:31:00,10.0,4.0,-100.00,ENE,68,3.0,7.0,77,0.00,,,0.09,1.000000,,2013-02-25 10:31:00,
2013-02-25 03:41:00,10.0,4.0,-100.00,ENE,68,3.0,7.0,77,0.00,,,0.09,1.000000,,2013-02-25 10:41:00,
2013-02-25 03:52:00,10.0,4.0,-100.00,ENE,68,3.0,7.0,77,0.00,,,0.09,1.000000,,2013-02-25 10:52:00,
2013-02-25 04:21:00,10.0,5.0,-100.00,East,90,4.0,6.0,78,0.00,,,0.09,1.000000,,2013-02-25 11:21:00,
2013-02-25 04:32:00,10.0,5.0,-100.00,East,90,4.0,6.0,78,0.00,,,0.09,1.000000,,2013-02-25 11:32:00,
2013-02-25 04:42:00,10.0,5.0,-100.00,East,90,4.0,6.0,78,0.00,,,0.09,1.000000,,2013-02-25 11:42:00,
2013-02-25 04:52:00,10.0,5.0,-100.00,East,90,4.0,6.0,78,0.00,,,0.09,1.000000,,2013-02-25 11:52:00,
2013-02-25 05:21:00,9.0,3.0,-100.00,East,87,5.0,7.0,77,0.00,,,0.09,1.000000,,2013-02-25 12:21:00,
2013-02-25 05:32:00,9.0,3.0,-100.00,East,87,5.0,7.0,77,0.00,,,0.09,1.000000,,2013-02-25 12:32:00,
2013-02-25 05:42:00,9.0,3.0,-100.00,East,87,5.0,7.0,77,0.00,,,0.09,1.000000,,2013-02-25 12:42:00,
2013-02-25 06:22:00,8.0,3.0,-100.00,ENE,78,5.0,8.0,79,0.00,,,0.09,1.000000,,2013-02-25 13:22:00,
2013-02-25 06:32:00,8.0,3.0,-100.00,ENE,78,5.0,8.0,79,0.00,,,0.09,1.000000,,2013-02-25 13:32:00,
2013-02-25 06:41:00,8.0,3.0,-100.00,ENE,78,5.0,8.0,79,0.00,,,0.09,1.000000,,2013-02-25 13:41:00,
2013-02-25 06:51:00,8.0,3.0,-100.00,ENE,78,5.0,8.0,79,0.00,,,0.09,1.000000,,2013-02-25 13:51:00,
2013-02-25 07:22:00,8.0,2.0,-100.00,East,91,4.0,8.0,76,0.00,,,0.09,1.000000,,2013-02-25 14:22:00,
2013-02-25 07:31:00,8.0,2.0,-100.00,East,91,4.0,8.0,76,0.00,,,0.09,1.000000,,2013-02-25 14:31:00,
2013-02-25 07:42:00,8.0,2.0,-100.00,East,91,4.0,8.0,76,0.00,,,0.09,1.000000,,2013-02-25 14:42:00,
2013-02-25 07:52:00,8.0,2.0,-100.00,East,91,4.0,8.0,76,0.00,,,0.09,1.000000,,2013-02-25 14:52:00,
2013-02-25 08:21:00,14.0,5.0,-100.00,East,93,6.0,11.0,67,0.00,,,0.09,25.000000,,2013-02-25 15:21:00,
2013-02-25 08:32:00,14.0,5.0,-100.00,East,93,6.0,11.0,67,0.00,,,0.09,25.000000,,2013-02-25 15:32:00,
2013-02-25 08:41:00,14.0,5.0,-100.00,East,93,6.0,11.0,67,0.00,,,0.09,25.000000,,2013-02-25 15:41:00,
2013-02-25 08:51:00,14.0,5.0,-100.00,East,93,6.0,11.0,67,0.00,,,0.09,25.000000,,2013-02-25 15:51:00,
2013-02-25 09:21:00,23.0,8.0,-100.00,ESE,104,2.0,9.0,51,0.00,,,-99.99,133.000000,,2013-02-25 16:21:00,
2013-02-25 10:21:00,31.0,6.0,-100.00,NE,45,2.0,5.0,34,-99.99,,,0.08,449.000000,,2013-02-25 17:21:00,
2013-02-25 10:31:00,31.0,6.0,-100.00,NE,45,2.0,5.0,34,-99.99,,,0.08,449.000000,,2013-02-25 17:31:00,
2013-02-25 11:21:00,33.0,9.0,-100.00,WNW,292,4.0,7.0,36,-99.99,,,0.08,634.000000,,2013-02-25 18:21:00,
2013-02-25 11:41:00,33.0,9.0,-100.00,WNW,292,4.0,7.0,36,-99.99,,,0.08,634.000000,,2013-02-25 18:41:00,
2013-02-25 11:51:00,33.0,9.0,-100.00,WNW,292,4.0,7.0,36,-99.99,,,0.08,634.000000,,2013-02-25 18:51:00,
2013-02-25 12:21:00,37.0,11.0,-100.00,West,270,4.0,9.0,33,0.03,,,0.08,741.000000,,2013-02-25 19:21:00,
2013-02-25 13:21:00,36.0,10.0,-100.00,WNW,282,5.0,9.0,34,-99.99,,,0.10,780.000000,,2013-02-25 20:21:00,
2013-02-25 13:31:00,36.0,10.0,-100.00,WNW,282,5.0,9.0,34,-99.99,,,0.10,780.000000,,2013-02-25 20:31:00,
2013-02-25 13:41:00,36.0,10.0,-100.00,WNW,282,5.0,9.0,34,-99.99,,,0.10,780.000000,,2013-02-25 20:41:00,
2013-02-25 13:52:00,36.0,10.0,-100.00,WNW,282,5.0,9.0,34,-99.99,,,0.10,780.000000,,2013-02-25 20:52:00,
2013-02-25 14:21:00,37.0,12.0,-100.00,WNW,301,4.0,13.0,35,0.05,,,0.14,756.000000,,2013-02-25 21:21:00,
2013-02-25 14:31:00,37.0,12.0,-100.00,WNW,301,4.0,13.0,35,0.05,,,0.14,756.000000,,2013-02-25 21:31:00,
2013-02-25 14:42:00,37.0,12.0,-100.00,WNW,301,4.0,13.0,35,0.05,,,0.14,756.000000,,2013-02-25 21:42:00,
2013-02-25 14:51:00,37.0,12.0,-100.00,WNW,301,4.0,13.0,35,0.05,,,0.14,756.000000,,2013-02-25 21:51:00,
2013-02-25 15:21:00,37.0,9.0,-100.00,WNW,303,4.0,8.0,31,0.02,,,0.16,673.000000,,2013-02-25 22:21:00,
2013-02-25 15:41:00,37.0,9.0,-100.00,WNW,303,4.0,8.0,31,0.02,,,0.16,673.000000,,2013-02-25 22:41:00,
2013-02-25 15:51:00,37.0,9.0,-100.00,WNW,303,4.0,8.0,31,0.02,,,0.16,673.000000,,2013-02-25 22:51:00,
2013-02-25 16:22:00,32.0,7.0,-100.00,WNW,300,4.0,9.0,35,0.01,,,0.17,459.000000,,2013-02-25 23:22:00,
2013-02-25 16:31:00,32.0,7.0,-100.00,WNW,300,4.0,9.0,35,0.01,,,0.17,459.000000,,2013-02-25 23:31:00,
2013-02-25 16:41:00,32.0,7.0,-100.00,WNW,300,4.0,9.0,35,0.01,,,0.17,459.000000,,2013-02-25 23:41:00,
2013-02-25 16:52:00,32.0,7.0,-100.00,WNW,300,4.0,9.0,35,0.01,,,0.17,459.000000,,2013-02-25 23:52:00,
2013-02-25 17:21:00,33.0,9.0,-100.00,WNW,283,3.0,7.0,36,0.00,,,0.17,164.000000,,2013-02-26 00:21:00,
2013-02-25 17:32:00,33.0,9.0,-100.00,WNW,283,3.0,7.0,36,0.00,,,0.17,164.000000,,2013-02-26 00:32:00,
2013-02-25 17:41:00,33.0,9.0,-100.00,WNW,283,3.0,7.0,36,0.00,,,0.17,164.000000,,2013-02-26 00:41:00,
2013-02-25 17:51:00,33.0,9.0,-100.00,WNW,283,3.0,7.0,36,0.00,,,0.17,164.000000,,2013-02-26 00:51:00,
2013-02-25 18:21:00,25.0,9.0,-100.00,WSW,240,0.0,6.0,50,0.00,,,0.17,65.000000,,2013-02-26 01:21:00,
2013-02-25 18:31:00,25.0,9.0,-100.00,WSW,240,0.0,6.0,50,0.00,,,0.17,65.000000,,2013-02-26 01:31:00,
2013-02-25 18:41:00,25.0,9.0,-100.00,WSW,240,0.0,6.0,50,0.00,,,0.17,65.000000,,2013-02-26 01:41:00,
2013-02-25 18:51:00,25.0,9.0,-100.00,WSW,240,0.0,6.0,50,0.00,,,0.17,65.000000,,2013-02-26 01:51:00,
2013-02-25 19:21:00,18.0,9.0,-100.00,SE,126,0.0,2.0,67,0.00,,,0.17,2.000000,,2013-02-26 02:21:00,
2013-02-25 19:32:00,18.0,9.0,-100.00,SE,126,0.0,2.0,67,0.00,,,0.17,2.000000,,2013-02-26 02:32:00,
2013-02-25 19:41:00,18.0,9.0,-100.00,SE,126,0.0,2.0,67,0.00,,,0.17,2.000000,,2013-02-26 02:41:00,
2013-02-25 19:52:00,18.0,9.0,-100.00,SE,126,0.0,2.0,67,0.00,,,0.17,2.000000,,2013-02-26 02:52:00,
2013-02-25 20:21:00,17.0,8.0,-100.00,East,96,0.0,3.0,66,0.00,,,0.17,1.000000,,2013-02-26 03:21:00,
2013-02-25 20:31:00,17.0,8.0,-100.00,East,96,0.0,3.0,66,0.00,,,0.17,1.000000,,2013-02-26 03:31:00,
2013-02-25 20:41:00,17.0,8.0,-100.00,East,96,0.0,3.0,66,0.00,,,0.17,1.000000,,2013-02-26 03:41:00,
2013-02-25 20:52:00,17.0,8.0,-100.00,East,96,0.0,3.0,66,0.00,,,0.17,1.000000,,2013-02-26 03:52:00,
2013-02-25 21:21:00,18.0,8.0,-100.00,East,92,4.0,6.0,63,0.00,,,0.17,1.000000,,2013-02-26 04:21:00,
2013-02-25 21:32:00,18.0,8.0,-100.00,East,92,4.0,6.0,63,0.00,,,0.17,1.000000,,2013-02-26 04:32:00,
2013-02-25 21:42:00,18.0,8.0,-100.00,East,92,4.0,6.0,63,0.00,,,0.17,1.000000,,2013-02-26 04:42:00,
2013-02-25 21:51:00,18.0,8.0,-100.00,East,92,4.0,6.0,63,0.00,,,0.17,1.000000,,2013-02-26 04:51:00,
2013-02-25 22:21:00,17.0,8.0,-100.00,NE,37,1.0,6.0,66,0.00,,,0.17,1.000000,,2013-02-26 05:21:00,
2013-02-25 22:31:00,17.0,8.0,-100.00,NE,37,1.0,6.0,66,0.00,,,0.17,1.000000,,2013-02-26 05:31:00,
2013-02-25 22:42:00,17.0,8.0,-100.00,NE,37,1.0,6.0,66,0.00,,,0.17,1.000000,,2013-02-26 05:42:00,
2013-02-25 22:52:00,17.0,8.0,-100.00,NE,37,1.0,6.0,66,0.00,,,0.17,1.000000,,2013-02-26 05:52:00,
2013-02-25 23:21:00,15.0,7.0,-100.00,ENE,72,0.0,3.0,70,0.00,,,0.17,1.000000,,2013-02-26 06:21:00,
2013-02-25 23:31:00,15.0,7.0,-100.00,ENE,72,0.0,3.0,70,0.00,,,0.17,1.000000,,2013-02-26 06:31:00,
2013-02-25 23:41:00,15.0,7.0,-100.00,ENE,72,0.0,3.0,70,0.00,,,0.17,1.000000,,2013-02-26 06:41:00,
2013-02-25 23:51:00,15.0,7.0,-100.00,ENE,72,0.0,3.0,70,0.00,,,0.17,1.000000,,2013-02-26 06:51:00,